Terminal Aerodrome Forecast
Issued by NWS Sterling, VA

Current Version | Previous Version | Graphics & Text | Print | Product List | Glossary On
Versions: 1 2 3 4 5 6 7 8 9 10 11 12 13 14 15
000
FTUS41 KLWX 302340
TAFMRB
TAF
KMRB 302340Z 0100/0124 VRB03KT 1/2SM SHRA OVC002
     FM010300 25009KT P6SM OVC015
     FM010500 27010KT P6SM BKN060
     FM011700 27015G22KT P6SM SCT045
     FM012300 27010KT P6SM SCT100=

USA.gov is the U.S. government's official web portal to all federal, state and local government web resources and services.